Time;durP1;ratioP1;P1;durP2;ratioP2;P2;SDS_P1;SDS_P2;PMS_P1;PMS_P2;Temp;Humidity;BMP_temperature;BMP_pressure;BME280_temperature;BME280_humidity;BME280_pressure;Samples;Min_cycle;Max_cycle;Signal;HPM_P1;HPM_P2
2022/12/08 00:16:10;;;;;;;28.45;12.98;;;-0.40;99.90;;;;;;21075479;28;20035;-76
2022/12/08 00:26:11;;;;;;;26.35;11.63;;;-0.20;99.90;;;;;;21055827;28;20047;-77
2022/12/08 00:36:13;;;;;;;26.23;11.77;;;0.00;99.90;;;;;;21073053;28;20023;-77
2022/12/08 00:46:14;;;;;;;33.47;12.95;;;0.20;99.90;;;;;;21073320;28;20729;-77
2022/12/08 00:56:15;;;;;;;29.27;12.10;;;0.20;99.90;;;;;;21073247;28;20046;-76
2022/12/08 01:06:15;;;;;;;21.58;9.93;;;0.30;99.90;;;;;;21072415;28;20062;-76
2022/12/08 01:16:21;;;;;;;26.60;10.98;;;0.30;99.90;;;;;;21054114;28;20401;-76
2022/12/08 01:26:22;;;;;;;25.10;10.63;;;0.30;99.90;;;;;;21071280;28;20031;-77
2022/12/08 01:36:25;;;;;;;23.80;10.40;;;0.40;99.90;;;;;;21071384;28;20395;-76
2022/12/08 01:46:29;;;;;;;26.10;10.38;;;0.50;99.90;;;;;;21083343;28;20112;-76
2022/12/08 01:56:42;;;;;;;20.65;9.90;;;0.50;99.90;;;;;;21086179;28;20383;-76
2022/12/08 02:06:47;;;;;;;20.83;9.32;;;0.60;99.90;;;;;;21065320;28;20103;-77
2022/12/08 02:16:56;;;;;;;22.75;9.80;;;0.70;99.90;;;;;;21084602;28;20028;-76
2022/12/08 02:27:21;;;;;;;22.58;10.90;;;0.70;99.90;;;;;;21083685;28;20032;-76
2022/12/08 02:37:26;;;;;;;22.15;9.77;;;0.50;99.90;;;;;;21083259;28;20028;-76
2022/12/08 02:47:29;;;;;;;19.63;9.68;;;0.20;99.90;;;;;;21064011;28;20032;-76
2022/12/08 02:57:41;;;;;;;24.70;10.45;;;0.10;99.90;;;;;;21080547;28;20101;-76
2022/12/08 03:07:42;;;;;;;24.42;10.35;;;0.00;99.90;;;;;;21081029;28;20510;-76
2022/12/08 03:17:51;;;;;;;21.90;9.43;;;-0.40;99.90;;;;;;21080216;28;20028;-76
2022/12/08 03:27:53;;;;;;;28.13;9.88;;;-0.80;99.90;;;;;;21078626;28;20040;-77
2022/12/08 03:38:06;;;;;;;24.00;10.02;;;-1.10;99.90;;;;;;21078826;28;20059;-76
2022/12/08 03:48:07;;;;;;;27.83;10.30;;;-1.30;99.90;;;;;;21059795;28;20051;-76
2022/12/08 03:58:07;;;;;;;27.80;11.73;;;-1.20;99.90;;;;;;21077701;28;20024;-76
2022/12/08 04:08:08;;;;;;;28.13;11.27;;;-1.20;99.90;;;;;;21081418;28;20107;-76
2022/12/08 04:18:09;;;;;;;22.75;10.60;;;-1.10;99.90;;;;;;21070080;28;20020;-77
2022/12/08 04:28:10;;;;;;;28.98;11.80;;;-1.10;99.90;;;;;;21055791;28;20028;-77
2022/12/08 04:38:11;;;;;;;29.05;10.98;;;-1.10;99.90;;;;;;21068651;28;20114;-77
2022/12/08 04:48:12;;;;;;;30.70;12.13;;;-1.00;99.90;;;;;;21053891;28;20032;-77
2022/12/08 04:58:15;;;;;;;25.35;11.30;;;-0.90;99.90;;;;;;21070872;28;20046;-77
2022/12/08 05:08:16;;;;;;;19.33;9.73;;;-0.80;99.90;;;;;;21122740;28;20493;-76
2022/12/08 05:18:17;;;;;;;26.70;10.05;;;-1.00;99.90;;;;;;21121892;28;20078;-77
2022/12/08 05:28:18;;;;;;;22.10;9.48;;;-1.30;99.90;;;;;;21142135;28;20027;-76
2022/12/08 05:38:19;;;;;;;21.45;10.15;;;-1.20;99.90;;;;;;21088065;28;20036;-77
2022/12/08 05:48:20;;;;;;;20.48;9.23;;;-1.40;99.90;;;;;;21087683;28;20114;-77
2022/12/08 05:58:22;;;;;;;21.95;9.00;;;-1.50;99.90;;;;;;21086977;28;20032;-76
2022/12/08 06:08:23;;;;;;;19.23;9.07;;;-1.50;99.90;;;;;;21085825;28;20036;-77
2022/12/08 06:18:24;;;;;;;24.60;9.35;;;-1.20;99.90;;;;;;21083594;28;20032;-78
2022/12/08 06:28:24;;;;;;;37.70;13.73;;;-0.90;99.90;;;;;;21083623;28;20035;-77
2022/12/08 06:38:25;;;;;;;51.58;17.65;;;-0.80;99.90;;;;;;21089825;28;20028;-77
2022/12/08 06:48:26;;;;;;;46.03;17.58;;;-0.70;99.90;;;;;;21082795;28;20039;-76
2022/12/08 06:58:27;;;;;;;111.43;19.15;;;-0.70;99.90;;;;;;21082012;28;20074;-76
2022/12/08 07:08:27;;;;;;;42.65;17.13;;;-0.80;99.90;;;;;;21080637;28;20375;-76
2022/12/08 07:18:28;;;;;;;40.97;15.35;;;-0.50;99.90;;;;;;21079164;28;20054;-76
2022/12/08 07:28:34;;;;;;;52.03;16.42;;;-0.40;99.90;;;;;;21079005;28;20401;-76
2022/12/08 07:38:35;;;;;;;48.90;17.02;;;-0.40;99.90;;;;;;21078211;28;20051;-75
2022/12/08 07:48:36;;;;;;;40.60;16.17;;;-0.20;99.90;;;;;;21077859;28;20024;-76
2022/12/08 07:58:36;;;;;;;43.63;16.83;;;-0.40;99.90;;;;;;21075600;28;20043;-76
2022/12/08 08:08:37;;;;;;;95.30;17.90;;;-0.20;99.90;;;;;;21005884;28;20127;-76
2022/12/08 08:18:38;;;;;;;48.28;14.57;;;-0.10;99.90;;;;;;20991778;28;20491;-75
2022/12/08 08:28:39;;;;;;;36.50;15.30;;;-0.10;99.90;;;;;;20987485;28;20028;-76
2022/12/08 08:38:42;;;;;;;45.00;18.30;;;-0.10;99.90;;;;;;20990592;28;20024;-76
2022/12/08 08:48:43;;;;;;;46.25;18.10;;;0.10;99.90;;;;;;20992013;28;20539;-76
2022/12/08 08:58:45;;;;;;;39.08;15.80;;;0.30;99.90;;;;;;21017514;28;20044;-76
2022/12/08 09:08:47;;;;;;;42.13;16.45;;;0.50;99.90;;;;;;21070347;28;20035;-77
2022/12/08 09:18:48;;;;;;;33.03;13.25;;;0.50;99.90;;;;;;21100599;28;20129;-77
2022/12/08 09:28:50;;;;;;;29.95;12.38;;;0.80;99.90;;;;;;21100519;28;20433;-77
2022/12/08 09:38:52;;;;;;;30.00;12.57;;;1.00;99.90;;;;;;21100380;28;20035;-76
2022/12/08 09:48:56;;;;;;;19.38;8.05;;;1.30;99.90;;;;;;21081442;28;20036;-80
2022/12/08 09:59:21;;;;;;;22.13;8.55;;;1.40;99.90;;;;;;21099404;28;20047;-76
2022/12/08 10:09:54;;;;;;;21.58;8.55;;;1.60;99.90;;;;;;21085004;28;20039;-76
2022/12/08 10:20:12;;;;;;;19.17;8.45;;;1.50;99.90;;;;;;21084781;28;20028;-77
2022/12/08 10:30:15;;;;;;;27.08;14.77;;;1.80;99.90;;;;;;21083654;28;20024;-77
2022/12/08 10:40:17;;;;;;;14.88;7.18;;;2.30;99.90;;;;;;21083354;28;20036;-77
2022/12/08 10:50:29;;;;;;;14.18;7.43;;;2.60;99.90;;;;;;21081666;28;20047;-77
2022/12/08 11:00:29;;;;;;;13.50;6.95;;;2.80;99.90;;;;;;21080122;28;20143;-77
2022/12/08 11:10:42;;;;;;;16.70;6.93;;;3.00;99.90;;;;;;21082713;28;20485;-77
2022/12/08 11:20:43;;;;;;;38.45;16.45;;;3.10;99.90;;;;;;21077816;28;20387;-77
2022/12/08 11:30:48;;;;;;;16.45;7.30;;;3.10;99.90;;;;;;21077214;28;20036;-77
2022/12/08 11:41:05;;;;;;;16.10;6.90;;;3.00;99.90;;;;;;21075430;28;20032;-76
2022/12/08 11:51:17;;;;;;;11.50;6.13;;;3.30;99.90;;;;;;21074190;28;20028;-77
2022/12/08 12:01:22;;;;;;;;;;;3.50;99.90;;;;;;21077237;28;20039;-77
2022/12/08 12:12:26;;;;;;;14.43;6.53;;;4.00;99.90;;;;;;21003735;28;19919;-77
2022/12/08 12:22:15;;;;;;;16.95;7.53;;;4.30;99.90;;;;;;20986093;28;20044;-77
2022/12/08 12:32:16;;;;;;;17.05;7.97;;;4.70;99.90;;;;;;20990347;28;20487;-77
2022/12/08 12:42:35;;;;;;;;;;;4.40;99.90;;;;;;20991383;28;20155;-77
2022/12/08 12:52:37;;;;;;;13.15;6.75;;;4.90;99.90;;;;;;20990068;28;19917;-77
2022/12/08 13:02:47;;;;;;;13.70;7.18;;;4.80;99.90;;;;;;20993998;28;20650;-77
2022/12/08 13:13:17;;;;;;;18.80;8.30;;;5.10;99.90;;;;;;20971323;28;20117;-77
2022/12/08 13:23:29;;;;;;;14.85;7.63;;;4.90;99.90;;;;;;20954535;28;20053;-77
2022/12/08 13:33:41;;;;;;;15.05;7.57;;;5.20;99.90;;;;;;20968559;28;20053;-77
2022/12/08 13:43:53;;;;;;;13.90;7.28;;;6.60;99.90;;;;;;20984833;28;20372;-77
2022/12/08 13:54:18;;;;;;;12.97;7.00;;;6.70;99.90;;;;;;21003573;28;20613;-77
2022/12/08 14:04:21;;;;;;;16.10;7.82;;;7.20;99.90;;;;;;21018111;28;20024;-77
2022/12/08 14:14:30;;;;;;;17.30;8.00;;;6.60;99.90;;;;;;21083749;28;20028;-77
2022/12/08 14:24:31;;;;;;;17.27;7.15;;;6.60;99.90;;;;;;21094675;28;20081;-78
2022/12/08 14:34:39;;;;;;;19.20;8.23;;;6.70;99.90;;;;;;21094993;28;20020;-77
2022/12/08 14:44:40;;;;;;;14.77;7.70;;;6.40;99.90;;;;;;21093431;28;20039;-77
2022/12/08 14:54:42;;;;;;;22.27;10.05;;;5.60;99.90;;;;;;21086224;28;20032;-78
2022/12/08 15:04:46;;;;;;;16.58;7.43;;;5.00;99.90;;;;;;21052351;28;20110;-78
2022/12/08 15:15:22;;;;;;;17.17;6.82;;;4.30;99.90;;;;;;21002911;28;20119;-77
2022/12/08 15:25:23;;;;;;;18.73;8.15;;;3.00;99.90;;;;;;20996452;28;20052;-78
2022/12/08 15:35:24;;;;;;;14.40;6.47;;;2.80;99.90;;;;;;21000005;28;20051;-76
2022/12/08 15:45:31;;;;;;;118.60;46.90;;;2.30;99.90;;;;;;20996947;28;20036;-75
2022/12/08 15:55:32;;;;;;;272.20;112.57;;;2.10;99.90;;;;;;20998365;28;20068;-78
2022/12/08 16:05:33;;;;;;;112.63;44.67;;;1.60;99.90;;;;;;20991636;28;20434;-77
2022/12/08 16:15:39;;;;;;;33.78;10.90;;;1.10;99.90;;;;;;20993538;28;20063;-78
2022/12/08 16:25:41;;;;;;;24.17;10.45;;;0.70;99.90;;;;;;20998329;28;20054;-78
2022/12/08 16:35:42;;;;;;;18.35;9.10;;;0.40;99.90;;;;;;20998257;28;20048;-78
2022/12/08 16:45:43;;;;;;;25.10;10.80;;;0.30;99.90;;;;;;20994757;28;20439;-77
2022/12/08 16:55:46;;;;;;;75.72;26.52;;;-0.10;99.90;;;;;;20990886;28;20039;-78
2022/12/08 17:05:47;;;;;;;40.22;15.10;;;-0.60;99.90;;;;;;20993142;28;20064;-78
2022/12/08 17:15:48;;;;;;;57.97;22.60;;;-0.20;99.90;;;;;;21011324;28;20493;-77
2022/12/08 17:25:59;;;;;;;69.50;28.70;;;-0.30;99.90;;;;;;21017891;28;20108;-77
2022/12/08 17:36:00;;;;;;;20.60;8.32;;;-0.50;99.90;;;;;;21013423;28;20032;-78
2022/12/08 17:46:01;;;;;;;25.00;11.00;;;-0.90;99.90;;;;;;21005510;28;20059;-76
2022/12/08 17:56:01;;;;;;;32.85;14.40;;;-0.80;99.90;;;;;;21003149;28;20032;-76
2022/12/08 18:06:10;;;;;;;41.55;17.63;;;-0.90;99.90;;;;;;21004526;28;20025;-75
2022/12/08 18:16:11;;;;;;;20.70;10.02;;;-0.60;99.90;;;;;;21011536;28;20499;-76
2022/12/08 18:26:14;;;;;;;23.02;9.75;;;-0.30;99.90;;;;;;20994843;28;20092;-76
2022/12/08 18:36:18;;;;;;;36.45;16.20;;;-0.30;99.90;;;;;;21004721;28;20032;-76
2022/12/08 18:46:18;;;;;;;33.05;15.52;;;-0.10;99.90;;;;;;21015093;28;20033;-75
2022/12/08 18:56:28;;;;;;;21.40;9.43;;;-0.10;99.90;;;;;;21021581;28;20031;-76
2022/12/08 19:06:29;;;;;;;23.48;10.30;;;-0.20;99.90;;;;;;21051953;28;20060;-77
2022/12/08 19:16:30;;;;;;;24.42;9.68;;;-0.20;99.90;;;;;;21085166;28;20039;-76
2022/12/08 19:26:30;;;;;;;16.15;8.18;;;-0.70;99.90;;;;;;21088131;28;20024;-76
2022/12/08 19:36:34;;;;;;;20.13;8.82;;;-0.40;99.90;;;;;;21094030;28;20024;-75
2022/12/08 19:46:35;;;;;;;21.02;8.98;;;-0.40;99.90;;;;;;21088094;28;20035;-77
2022/12/08 19:56:36;;;;;;;20.25;9.55;;;-0.40;99.90;;;;;;21087590;28;20030;-76
2022/12/08 20:06:36;;;;;;;19.83;9.00;;;-0.30;99.90;;;;;;21054572;28;20032;-76
2022/12/08 20:16:37;;;;;;;19.73;9.00;;;-0.20;99.90;;;;;;20999032;28;20051;-75
2022/12/08 20:26:38;;;;;;;24.70;10.43;;;-0.10;99.90;;;;;;20992369;28;20115;-76
2022/12/08 20:36:39;;;;;;;30.13;13.40;;;-0.10;99.90;;;;;;20991244;28;20454;-76
2022/12/08 20:46:40;;;;;;;34.13;14.18;;;0.00;99.90;;;;;;20971756;28;20024;-77
2022/12/08 20:56:41;;;;;;;32.50;13.43;;;-0.10;99.90;;;;;;20989130;28;20482;-76
2022/12/08 21:06:41;;;;;;;32.03;12.75;;;0.00;99.90;;;;;;21024179;28;20038;-77
2022/12/08 21:16:42;;;;;;;29.60;12.43;;;0.00;99.90;;;;;;21071974;28;20147;-76
2022/12/08 21:26:43;;;;;;;33.78;13.65;;;-0.10;99.90;;;;;;21071256;28;20028;-76
2022/12/08 21:36:44;;;;;;;32.17;12.88;;;0.00;99.90;;;;;;21051885;28;20032;-76
2022/12/08 21:46:45;;;;;;;29.02;12.13;;;-0.20;99.90;;;;;;21076726;28;20032;-76
2022/12/08 21:56:47;;;;;;;33.13;13.82;;;-0.20;99.90;;;;;;21077223;28;20032;-76
2022/12/08 22:06:48;;;;;;;30.15;12.88;;;-0.20;99.90;;;;;;21085629;28;20043;-76
2022/12/08 22:16:49;;;;;;;29.13;12.45;;;-0.10;99.90;;;;;;21086618;28;20036;-76
2022/12/08 22:26:50;;;;;;;27.95;13.07;;;-0.20;99.90;;;;;;21085929;28;20098;-76
2022/12/08 22:36:51;;;;;;;34.15;12.40;;;-0.20;99.90;;;;;;21065739;28;20525;-76
2022/12/08 22:46:51;;;;;;;24.63;11.75;;;-0.20;99.90;;;;;;21083315;28;20394;-76
2022/12/08 22:56:53;;;;;;;43.42;12.05;;;-0.20;99.90;;;;;;21082602;28;20062;-76
2022/12/08 23:06:53;;;;;;;30.80;11.65;;;-0.10;99.90;;;;;;21081383;28;20020;-76
2022/12/08 23:16:54;;;;;;;29.65;11.68;;;0.00;99.90;;;;;;21080472;28;20031;-76
2022/12/08 23:26:55;;;;;;;26.55;11.57;;;0.10;99.90;;;;;;21079433;28;20088;-75
2022/12/08 23:36:56;;;;;;;26.33;11.40;;;0.20;99.90;;;;;;21079630;28;20024;-76
2022/12/08 23:46:57;;;;;;;26.30;11.50;;;0.20;99.90;;;;;;21081859;28;20062;-75
2022/12/08 23:56:58;;;;;;;28.02;11.85;;;0.20;99.90;;;;;;21063816;28;20126;-76
